sensor_id;sensor_type;location;lat;lon;timestamp;pressure;altitude;pressure_sealevel;temperature;humidity
39405;BME280;25121;51.090;17.038;2023-02-22T00:01:32;100098.38;;;8.34;64.29
39405;BME280;25121;51.090;17.038;2023-02-22T00:02:58;100084.63;;;8.20;64.31
39405;BME280;25121;51.090;17.038;2023-02-22T00:04:19;100106.53;;;8.24;64.31
39405;BME280;25121;51.090;17.038;2023-02-22T00:06:16;100098.00;;;8.20;64.46
39405;BME280;25121;51.090;17.038;2023-02-22T00:07:45;100102.66;;;8.18;64.74
39405;BME280;25121;51.090;17.038;2023-02-22T00:09:12;100100.47;;;8.14;64.86
39405;BME280;25121;51.090;17.038;2023-02-22T00:10:43;100083.84;;;8.02;64.90
39405;BME280;25121;51.090;17.038;2023-02-22T00:12:13;100092.88;;;8.01;64.91
39405;BME280;25121;51.090;17.038;2023-02-22T00:13:36;100104.78;;;8.07;65.04
39405;BME280;25121;51.090;17.038;2023-02-22T00:14:59;100110.13;;;8.07;65.22
39405;BME280;25121;51.090;17.038;2023-02-22T00:16:28;100096.00;;;7.96;65.43
39405;BME280;25121;51.090;17.038;2023-02-22T00:17:54;100103.72;;;7.99;65.47
39405;BME280;25121;51.090;17.038;2023-02-22T00:19:27;100102.66;;;7.92;65.73
39405;BME280;25121;51.090;17.038;2023-02-22T00:20:58;100119.94;;;7.98;65.71
39405;BME280;25121;51.090;17.038;2023-02-22T00:22:25;100114.59;;;7.98;65.84
39405;BME280;25121;51.090;17.038;2023-02-22T00:23:49;100101.47;;;7.87;66.05
39405;BME280;25121;51.090;17.038;2023-02-22T00:25:18;100108.66;;;7.86;65.96
39405;BME280;25121;51.090;17.038;2023-02-22T00:26:45;100116.22;;;7.91;66.06
39405;BME280;25121;51.090;17.038;2023-02-22T00:35:43;100108.72;;;7.68;66.16
39405;BME280;25121;51.090;17.038;2023-02-22T00:40:32;100106.97;;;7.59;66.13
39405;BME280;25121;51.090;17.038;2023-02-22T00:48:52;100114.00;;;7.42;66.65
39405;BME280;25121;51.090;17.038;2023-02-22T00:50:32;100122.72;;;7.44;66.91
39405;BME280;25121;51.090;17.038;2023-02-22T00:52:08;100127.94;;;7.46;66.96
39405;BME280;25121;51.090;17.038;2023-02-22T00:53:37;100129.78;;;7.45;67.22
39405;BME280;25121;51.090;17.038;2023-02-22T00:57:49;100111.41;;;7.32;67.39
39405;BME280;25121;51.090;17.038;2023-02-22T01:02:12;100128.16;;;7.34;67.55
39405;BME280;25121;51.090;17.038;2023-02-22T01:03:36;100130.00;;;7.34;67.71
39405;BME280;25121;51.090;17.038;2023-02-22T01:05:13;100125.28;;;7.28;67.77
39405;BME280;25121;51.090;17.038;2023-02-22T01:06:44;100124.41;;;7.27;67.87
39405;BME280;25121;51.090;17.038;2023-02-22T01:08:29;100128.09;;;7.26;67.95
39405;BME280;25121;51.090;17.038;2023-02-22T01:10:41;100129.16;;;7.33;68.04
39405;BME280;25121;51.090;17.038;2023-02-22T01:12:49;100144.06;;;7.36;68.09
39405;BME280;25121;51.090;17.038;2023-02-22T01:14:31;100127.84;;;7.38;67.99
39405;BME280;25121;51.090;17.038;2023-02-22T01:16:09;100134.06;;;7.38;68.43
39405;BME280;25121;51.090;17.038;2023-02-22T01:18:07;100116.94;;;7.31;68.21
39405;BME280;25121;51.090;17.038;2023-02-22T01:19:32;100132.91;;;7.41;68.47
39405;BME280;25121;51.090;17.038;2023-02-22T01:21:02;100132.72;;;7.42;68.23
39405;BME280;25121;51.090;17.038;2023-02-22T01:22:39;100134.56;;;7.42;68.53
39405;BME280;25121;51.090;17.038;2023-02-22T01:24:38;100134.81;;;7.48;68.63
39405;BME280;25121;51.090;17.038;2023-02-22T01:27:56;100122.03;;;7.42;68.37
39405;BME280;25121;51.090;17.038;2023-02-22T01:31:58;100123.56;;;7.45;68.41
39405;BME280;25121;51.090;17.038;2023-02-22T01:34:55;100118.06;;;7.46;68.22
39405;BME280;25121;51.090;17.038;2023-02-22T01:36:21;100128.50;;;7.58;68.33
39405;BME280;25121;51.090;17.038;2023-02-22T01:37:43;100131.88;;;7.60;68.25
39405;BME280;25121;51.090;17.038;2023-02-22T12:26:19;100133.03;;;14.08;44.79
39405;BME280;25121;51.090;17.038;2023-02-22T12:27:47;100127.88;;;14.13;44.76
39405;BME280;25121;51.090;17.038;2023-02-22T12:29:27;100121.88;;;14.17;44.42
39405;BME280;25121;51.090;17.038;2023-02-22T12:31:06;100130.88;;;14.25;44.16
39405;BME280;25121;51.090;17.038;2023-02-22T12:32:37;100122.78;;;14.25;44.05
39405;BME280;25121;51.090;17.038;2023-02-22T12:34:43;100135.72;;;14.36;43.64
39405;BME280;25121;51.090;17.038;2023-02-22T12:36:19;100140.56;;;14.47;43.46
39405;BME280;25121;51.090;17.038;2023-02-22T12:38:05;100134.97;;;14.49;43.36
39405;BME280;25121;51.090;17.038;2023-02-22T15:11:26;100102.47;;;11.36;46.37
39405;BME280;25121;51.090;17.038;2023-02-22T15:18:23;100097.44;;;11.10;46.41
39405;BME280;25121;51.090;17.038;2023-02-22T15:29:06;100101.41;;;10.68;47.32
39405;BME280;25121;51.090;17.038;2023-02-22T15:31:51;100110.84;;;10.64;47.49
39405;BME280;25121;51.090;17.038;2023-02-22T15:34:37;100081.53;;;10.46;47.74
39405;BME280;25121;51.090;17.038;2023-02-22T15:37:18;100101.84;;;10.49;48.23
39405;BME280;25121;51.090;17.038;2023-02-22T15:52:24;100108.81;;;10.10;48.46
39405;BME280;25121;51.090;17.038;2023-02-22T15:56:29;100102.13;;;9.98;48.55
39405;BME280;25121;51.090;17.038;2023-02-22T15:57:56;100114.34;;;10.01;48.65
39405;BME280;25121;51.090;17.038;2023-02-22T15:59:22;100088.56;;;9.91;48.52
39405;BME280;25121;51.090;17.038;2023-02-22T16:00:59;100106.16;;;9.94;48.36
39405;BME280;25121;51.090;17.038;2023-02-22T16:02:32;100114.53;;;9.99;48.64
39405;BME280;25121;51.090;17.038;2023-02-22T16:03:56;100114.22;;;9.94;48.70
39405;BME280;25121;51.090;17.038;2023-02-22T16:05:27;100105.50;;;9.92;48.83
39405;BME280;25121;51.090;17.038;2023-02-22T16:07:02;100122.09;;;9.96;48.69
39405;BME280;25121;51.090;17.038;2023-02-22T16:08:35;100112.38;;;9.95;48.74
39405;BME280;25121;51.090;17.038;2023-02-22T16:10:26;100110.69;;;9.93;48.56
39405;BME280;25121;51.090;17.038;2023-02-22T16:12:06;100108.34;;;9.90;48.75
39405;BME280;25121;51.090;17.038;2023-02-22T16:13:34;100104.16;;;9.88;48.88
39405;BME280;25121;51.090;17.038;2023-02-22T16:14:57;100113.38;;;9.93;48.58
39405;BME280;25121;51.090;17.038;2023-02-22T16:16:21;100111.38;;;9.87;48.78
39405;BME280;25121;51.090;17.038;2023-02-22T16:17:47;100117.06;;;9.92;49.13
39405;BME280;25121;51.090;17.038;2023-02-22T16:19:34;100118.09;;;9.91;49.27
39405;BME280;25121;51.090;17.038;2023-02-22T16:21:07;100113.56;;;9.92;49.26
39405;BME280;25121;51.090;17.038;2023-02-22T16:22:39;100115.56;;;9.90;49.60
39405;BME280;25121;51.090;17.038;2023-02-22T16:24:24;100106.84;;;9.88;49.53
39405;BME280;25121;51.090;17.038;2023-02-22T16:26:22;100120.09;;;9.89;49.25
39405;BME280;25121;51.090;17.038;2023-02-22T16:27:46;100100.66;;;9.79;49.36
39405;BME280;25121;51.090;17.038;2023-02-22T16:29:27;100121.28;;;9.87;49.30
39405;BME280;25121;51.090;17.038;2023-02-22T16:30:56;100125.31;;;9.83;49.21
39405;BME280;25121;51.090;17.038;2023-02-22T16:32:30;100125.31;;;9.83;49.09
39405;BME280;25121;51.090;17.038;2023-02-22T16:33:58;100112.88;;;9.74;49.31
39405;BME280;25121;51.090;17.038;2023-02-22T16:35:26;100121.44;;;9.77;49.17
39405;BME280;25121;51.090;17.038;2023-02-22T16:36:49;100123.13;;;9.78;48.96
39405;BME280;25121;51.090;17.038;2023-02-22T16:40:39;100130.50;;;9.76;49.01
39405;BME280;25121;51.090;17.038;2023-02-22T16:42:32;100125.81;;;9.70;48.93
39405;BME280;25121;51.090;17.038;2023-02-22T16:43:55;100134.19;;;9.75;48.95
39405;BME280;25121;51.090;17.038;2023-02-22T16:45:23;100140.59;;;9.74;49.08
39405;BME280;25121;51.090;17.038;2023-02-22T16:46:59;100141.56;;;9.73;49.15
39405;BME280;25121;51.090;17.038;2023-02-22T16:48:33;100148.94;;;9.71;48.98
39405;BME280;25121;51.090;17.038;2023-02-22T16:49:58;100148.78;;;9.73;49.00
39405;BME280;25121;51.090;17.038;2023-02-22T16:51:27;100142.94;;;9.69;49.03
39405;BME280;25121;51.090;17.038;2023-02-22T16:52:52;100147.13;;;9.72;49.16
39405;BME280;25121;51.090;17.038;2023-02-22T16:54:22;100141.44;;;9.66;49.04
39405;BME280;25121;51.090;17.038;2023-02-22T16:55:59;100149.63;;;9.73;49.22
39405;BME280;25121;51.090;17.038;2023-02-22T16:57:23;100147.97;;;9.72;49.32
39405;BME280;25121;51.090;17.038;2023-02-22T16:58:52;100147.97;;;9.72;49.40
39405;BME280;25121;51.090;17.038;2023-02-22T17:00:19;100149.81;;;9.72;49.45
39405;BME280;25121;51.090;17.038;2023-02-22T17:01:51;100147.78;;;9.74;49.54
39405;BME280;25121;51.090;17.038;2023-02-22T17:03:17;100142.75;;;9.70;49.26
39405;BME280;25121;51.090;17.038;2023-02-22T17:04:43;100146.78;;;9.75;49.72
39405;BME280;25121;51.090;17.038;2023-02-22T17:06:12;100156.16;;;9.70;49.54
39405;BME280;25121;51.090;17.038;2023-02-22T17:07:41;100144.13;;;9.66;49.98
39405;BME280;25121;51.090;17.038;2023-02-22T17:09:04;100147.09;;;9.63;49.71
39405;BME280;25121;51.090;17.038;2023-02-22T17:10:29;100155.84;;;9.65;49.89
39405;BME280;25121;51.090;17.038;2023-02-22T17:11:56;100152.66;;;9.62;49.61
39405;BME280;25121;51.090;17.038;2023-02-22T17:13:25;100160.38;;;9.65;49.59
39405;BME280;25121;51.090;17.038;2023-02-22T17:14:52;100162.38;;;9.63;49.75
39405;BME280;25121;51.090;17.038;2023-02-22T17:16:14;100159.69;;;9.63;49.88
39405;BME280;25121;51.090;17.038;2023-02-22T17:17:38;100162.53;;;9.61;49.88
39405;BME280;25121;51.090;17.038;2023-02-22T17:19:00;100153.66;;;9.53;49.89
39405;BME280;25121;51.090;17.038;2023-02-22T17:20:24;100162.19;;;9.56;49.98
39405;BME280;25121;51.090;17.038;2023-02-22T17:21:51;100163.69;;;9.59;49.96
39405;BME280;25121;51.090;17.038;2023-02-22T17:23:13;100163.88;;;9.57;50.10
39405;BME280;25121;51.090;17.038;2023-02-22T17:24:37;100153.81;;;9.51;50.02
39405;BME280;25121;51.090;17.038;2023-02-22T17:26:02;100166.56;;;9.57;50.36
39405;BME280;25121;51.090;17.038;2023-02-22T17:27:26;100163.88;;;9.57;50.30
39405;BME280;25121;51.090;17.038;2023-02-22T17:28:49;100167.75;;;9.55;50.23
39405;BME280;25121;51.090;17.038;2023-02-22T17:30:14;100153.66;;;9.53;50.32
39405;BME280;25121;51.090;17.038;2023-02-22T17:31:54;100158.88;;;9.54;50.18
39405;BME280;25121;51.090;17.038;2023-02-22T17:33:23;100153.31;;;9.47;50.47
39405;BME280;25121;51.090;17.038;2023-02-22T17:34:49;100158.19;;;9.52;50.41
39405;BME280;25121;51.090;17.038;2023-02-22T17:36:25;100153.66;;;9.44;50.27
39405;BME280;25121;51.090;17.038;2023-02-22T17:37:48;100161.69;;;9.53;50.45
39405;BME280;25121;51.090;17.038;2023-02-22T17:39:23;100162.53;;;9.53;50.46
39405;BME280;25121;51.090;17.038;2023-02-22T17:40:53;100162.72;;;9.52;50.44
39405;BME280;25121;51.090;17.038;2023-02-22T17:42:15;100164.53;;;9.51;50.22
39405;BME280;25121;51.090;17.038;2023-02-22T17:43:39;100152.16;;;9.42;50.36
39405;BME280;25121;51.090;17.038;2023-02-22T17:45:04;100165.72;;;9.48;50.27
39405;BME280;25121;51.090;17.038;2023-02-22T17:46:26;100157.31;;;9.43;50.41
39405;BME280;25121;51.090;17.038;2023-02-22T17:47:49;100162.03;;;9.49;50.46
39405;BME280;25121;51.090;17.038;2023-02-22T17:49:31;100168.25;;;9.50;50.33
39405;BME280;25121;51.090;17.038;2023-02-22T17:51:02;100163.22;;;9.47;50.30
39405;BME280;25121;51.090;17.038;2023-02-22T17:52:27;100143.56;;;9.38;50.22
39405;BME280;25121;51.090;17.038;2023-02-22T17:53:54;100163.72;;;9.42;50.44
39405;BME280;25121;51.090;17.038;2023-02-22T17:55:19;100156.66;;;9.41;50.58
39405;BME280;25121;51.090;17.038;2023-02-22T17:56:43;100143.91;;;9.35;50.38
39405;BME280;25121;51.090;17.038;2023-02-22T17:58:17;100165.56;;;9.42;50.57
39405;BME280;25121;51.090;17.038;2023-02-22T17:59:43;100164.69;;;9.41;50.71
39405;BME280;25121;51.090;17.038;2023-02-22T18:01:24;100157.00;;;9.38;50.55
39405;BME280;25121;51.090;17.038;2023-02-22T18:02:56;100153.13;;;9.33;50.58
39405;BME280;25121;51.090;17.038;2023-02-22T18:04:21;100146.25;;;9.30;50.46
39405;BME280;25121;51.090;17.038;2023-02-22T18:05:47;100159.66;;;9.38;50.57
39405;BME280;25121;51.090;17.038;2023-02-22T18:07:15;100162.34;;;9.38;50.62
39405;BME280;25121;51.090;17.038;2023-02-22T18:08:54;100144.75;;;9.27;50.69
39405;BME280;25121;51.090;17.038;2023-02-22T18:10:22;100148.44;;;9.35;50.47
39405;BME280;25121;51.090;17.038;2023-02-22T18:11:47;100152.97;;;9.34;50.72
39405;BME280;25121;51.090;17.038;2023-02-22T18:13:21;100156.31;;;9.36;50.57
39405;BME280;25121;51.090;17.038;2023-02-22T18:15:11;100148.41;;;9.26;50.68
39405;BME280;25121;51.090;17.038;2023-02-22T18:16:45;100150.13;;;9.27;50.62
39405;BME280;25121;51.090;17.038;2023-02-22T18:18:31;100157.97;;;9.29;50.55
39405;BME280;25121;51.090;17.038;2023-02-22T18:19:55;100163.34;;;9.29;50.56
39405;BME280;25121;51.090;17.038;2023-02-22T18:21:22;100159.16;;;9.26;50.63
39405;BME280;25121;51.090;17.038;2023-02-22T18:22:46;100162.00;;;9.25;50.57
39405;BME280;25121;51.090;17.038;2023-02-22T18:24:31;100164.69;;;9.25;50.65
39405;BME280;25121;51.090;17.038;2023-02-22T18:25:55;100170.22;;;9.23;50.71
39405;BME280;25121;51.090;17.038;2023-02-22T18:27:39;100160.66;;;9.21;50.76
39405;BME280;25121;51.090;17.038;2023-02-22T18:29:08;100153.44;;;9.13;50.90
39405;BME280;25121;51.090;17.038;2023-02-22T18:30:35;100161.47;;;9.13;50.88
39405;BME280;25121;51.090;17.038;2023-02-22T18:32:18;100156.94;;;9.05;51.16
39405;BME280;25121;51.090;17.038;2023-02-22T18:36:12;100156.59;;;9.00;51.20
39405;BME280;25121;51.090;17.038;2023-02-22T18:37:43;100172.53;;;9.02;51.14
39405;BME280;25121;51.090;17.038;2023-02-22T18:39:09;100167.47;;;8.99;51.55
39405;BME280;25121;51.090;17.038;2023-02-22T18:40:42;100158.56;;;8.90;51.81
39405;BME280;25121;51.090;17.038;2023-02-22T18:42:11;100162.25;;;8.89;51.88
39405;BME280;25121;51.090;17.038;2023-02-22T18:43:35;100167.78;;;8.88;51.93
39405;BME280;25121;51.090;17.038;2023-02-22T18:45:01;100169.78;;;8.86;52.06
39405;BME280;25121;51.090;17.038;2023-02-22T18:46:26;100172.78;;;8.82;52.50
39405;BME280;25121;51.090;17.038;2023-02-22T18:47:55;100170.44;;;8.79;52.32
39405;BME280;25121;51.090;17.038;2023-02-22T18:49:28;100161.50;;;8.71;52.71
39405;BME280;25121;51.090;17.038;2023-02-22T18:52:18;100154.13;;;8.65;53.01
39405;BME280;25121;51.090;17.038;2023-02-22T18:53:06;100170.03;;;8.66;52.97
39405;BME280;25121;51.090;17.038;2023-02-22T18:54:38;100165.00;;;8.63;53.03
39405;BME280;25121;51.090;17.038;2023-02-22T18:56:08;100156.94;;;8.55;53.47
39405;BME280;25121;51.090;17.038;2023-02-22T18:57:37;100158.59;;;8.56;53.45
39405;BME280;25121;51.090;17.038;2023-02-22T18:59:09;100163.47;;;8.52;53.61
39405;BME280;25121;51.090;17.038;2023-02-22T19:00:36;100138.31;;;8.45;53.99
39405;BME280;25121;51.090;17.038;2023-02-22T19:02:03;100155.72;;;8.49;54.10
39405;BME280;25121;51.090;17.038;2023-02-22T19:03:28;100161.25;;;8.48;54.22
39405;BME280;25121;51.090;17.038;2023-02-22T19:04:52;100157.22;;;8.44;54.30
39405;BME280;25121;51.090;17.038;2023-02-22T19:06:23;100160.66;;;8.36;54.32
39405;BME280;25121;51.090;17.038;2023-02-22T19:07:59;100160.50;;;8.37;54.75
39405;BME280;25121;51.090;17.038;2023-02-22T19:09:25;100165.69;;;8.39;54.89
39405;BME280;25121;51.090;17.038;2023-02-22T19:10:52;100154.25;;;8.29;55.02
39405;BME280;25121;51.090;17.038;2023-02-22T19:12:14;100174.03;;;8.36;55.00
39405;BME280;25121;51.090;17.038;2023-02-22T19:14:05;100166.13;;;8.26;55.03
39405;BME280;25121;51.090;17.038;2023-02-22T19:15:31;100162.97;;;8.31;55.18
39405;BME280;25121;51.090;17.038;2023-02-22T19:16:56;100156.88;;;8.20;55.23
39405;BME280;25121;51.090;17.038;2023-02-22T19:18:23;100168.66;;;8.28;55.28
39405;BME280;25121;51.090;17.038;2023-02-22T19:19:46;100158.72;;;8.20;55.40
39405;BME280;25121;51.090;17.038;2023-02-22T19:21:12;100176.59;;;8.19;55.51
39405;BME280;25121;51.090;17.038;2023-02-22T19:22:36;100172.13;;;8.20;55.54
39405;BME280;25121;51.090;17.038;2023-02-22T19:23:59;100164.00;;;8.12;55.60
39405;BME280;25121;51.090;17.038;2023-02-22T19:25:28;100158.47;;;8.05;55.57
39405;BME280;25121;51.090;17.038;2023-02-22T19:27:45;100152.22;;;7.96;55.64
39405;BME280;25121;51.090;17.038;2023-02-22T19:29:26;100173.31;;;7.99;56.00
39405;BME280;25121;51.090;17.038;2023-02-22T19:31:18;100155.16;;;7.85;55.72
39405;BME280;25121;51.090;17.038;2023-02-22T19:32:44;100160.34;;;7.87;55.71
39405;BME280;25121;51.090;17.038;2023-02-22T19:34:20;100162.50;;;7.83;55.91
39405;BME280;25121;51.090;17.038;2023-02-22T19:36:04;100169.16;;;7.79;56.11
39405;BME280;25121;51.090;17.038;2023-02-22T19:38:09;100169.22;;;7.69;55.91
39405;BME280;25121;51.090;17.038;2023-02-22T19:39:36;100151.75;;;7.57;55.95
39405;BME280;25121;51.090;17.038;2023-02-22T19:41:12;100148.88;;;7.50;56.10
39405;BME280;25121;51.090;17.038;2023-02-22T19:43:06;100153.28;;;7.42;56.30
39405;BME280;25121;51.090;17.038;2023-02-22T19:44:51;100163.66;;;7.45;56.27
39405;BME280;25121;51.090;17.038;2023-02-22T19:46:26;100159.91;;;7.38;56.20
39405;BME280;25121;51.090;17.038;2023-02-22T19:48:16;100155.06;;;7.33;56.31
39405;BME280;25121;51.090;17.038;2023-02-22T19:49:55;100151.75;;;7.21;56.57
39405;BME280;25121;51.090;17.038;2023-02-22T19:51:54;100158.94;;;7.21;56.61
39405;BME280;25121;51.090;17.038;2023-02-22T19:53:23;100168.63;;;7.22;56.69
39405;BME280;25121;51.090;17.038;2023-02-22T19:54:47;100177.81;;;7.19;56.60
39405;BME280;25121;51.090;17.038;2023-02-22T19:56:16;100168.56;;;7.14;56.83
39405;BME280;25121;51.090;17.038;2023-02-22T19:57:52;100170.53;;;7.11;56.71
39405;BME280;25121;51.090;17.038;2023-02-22T19:59:39;100162.13;;;7.06;56.80
39405;BME280;25121;51.090;17.038;2023-02-22T20:01:09;100168.31;;;7.07;56.84
39405;BME280;25121;51.090;17.038;2023-02-22T20:02:35;100155.72;;;6.99;57.27
39405;BME280;25121;51.090;17.038;2023-02-22T20:04:00;100164.41;;;7.01;57.02
39405;BME280;25121;51.090;17.038;2023-02-22T20:05:26;100175.94;;;7.02;57.31
39405;BME280;25121;51.090;17.038;2023-02-22T20:06:53;100173.28;;;7.02;57.25
39405;BME280;25121;51.090;17.038;2023-02-22T20:08:17;100177.09;;;6.99;56.84
39405;BME280;25121;51.090;17.038;2023-02-22T20:09:41;100165.31;;;6.92;57.27
39405;BME280;25121;51.090;17.038;2023-02-22T20:11:09;100164.78;;;6.88;57.41
39405;BME280;25121;51.090;17.038;2023-02-22T20:12:35;100176.00;;;6.92;57.49
39405;BME280;25121;51.090;17.038;2023-02-22T20:14:38;100165.06;;;6.85;57.26
39405;BME280;25121;51.090;17.038;2023-02-22T20:16:06;100172.25;;;6.85;57.50
39405;BME280;25121;51.090;17.038;2023-02-22T20:17:35;100163.31;;;6.76;57.49
39405;BME280;25121;51.090;17.038;2023-02-22T20:19:01;100167.50;;;6.79;57.61
39405;BME280;25121;51.090;17.038;2023-02-22T20:20:33;100177.06;;;6.81;57.67
39405;BME280;25121;51.090;17.038;2023-02-22T20:21:57;100172.28;;;6.75;57.50
39405;BME280;25121;51.090;17.038;2023-02-22T20:23:25;100173.81;;;6.78;57.68
39405;BME280;25121;51.090;17.038;2023-02-22T20:25:14;100176.94;;;6.73;57.76
39405;BME280;25121;51.090;17.038;2023-02-22T20:26:41;100168.00;;;6.64;57.66
39405;BME280;25121;51.090;17.038;2023-02-22T20:28:58;100166.47;;;6.62;57.80
39405;BME280;25121;51.090;17.038;2023-02-22T20:30:16;100176.00;;;6.64;57.84
39405;BME280;25121;51.090;17.038;2023-02-22T20:31:40;100168.56;;;6.58;57.83
39405;BME280;25121;51.090;17.038;2023-02-22T20:33:20;100183.31;;;6.62;58.02
39405;BME280;25121;51.090;17.038;2023-02-22T20:34:46;100173.91;;;6.58;58.18
39405;BME280;25121;51.090;17.038;2023-02-22T20:36:36;100154.28;;;6.50;58.06
39405;BME280;25121;51.090;17.038;2023-02-22T20:38:14;100183.63;;;6.59;58.06
39405;BME280;25121;51.090;17.038;2023-02-22T20:39:39;100173.78;;;6.60;58.19
39405;BME280;25121;51.090;17.038;2023-02-22T20:41:14;100166.78;;;6.59;58.32
39405;BME280;25121;51.090;17.038;2023-02-22T20:42:51;100155.53;;;6.55;58.21
39405;BME280;25121;51.090;17.038;2023-02-22T20:44:39;100162.69;;;6.55;58.21
39405;BME280;25121;51.090;17.038;2023-02-22T20:46:04;100167.03;;;6.56;58.11
39405;BME280;25121;51.090;17.038;2023-02-22T20:47:28;100169.00;;;6.63;58.47
39405;BME280;25121;51.090;17.038;2023-02-22T20:49:17;100172.19;;;6.67;58.40
39405;BME280;25121;51.090;17.038;2023-02-22T20:50:41;100172.91;;;6.69;58.43
39405;BME280;25121;51.090;17.038;2023-02-22T20:52:20;100164.31;;;6.65;58.23
39405;BME280;25121;51.090;17.038;2023-02-22T20:53:44;100174.25;;;6.73;58.19
39405;BME280;25121;51.090;17.038;2023-02-22T20:55:30;100158.97;;;6.65;58.35
39405;BME280;25121;51.090;17.038;2023-02-22T20:57:06;100161.38;;;6.68;58.04
39405;BME280;25121;51.090;17.038;2023-02-22T20:58:33;100154.50;;;6.66;57.87
39405;BME280;25121;51.090;17.038;2023-02-22T20:59:55;100150.13;;;6.65;57.75
39405;BME280;25121;51.090;17.038;2023-02-22T21:02:00;100156.47;;;6.64;57.82
39405;BME280;25121;51.090;17.038;2023-02-22T21:03:31;100149.44;;;6.63;58.05
39405;BME280;25121;51.090;17.038;2023-02-22T21:04:58;100163.19;;;6.68;57.76
39405;BME280;25121;51.090;17.038;2023-02-22T21:06:33;100150.13;;;6.65;57.94
39405;BME280;25121;51.090;17.038;2023-02-22T21:08:00;100149.16;;;6.66;57.91
39405;BME280;25121;51.090;17.038;2023-02-22T21:09:24;100158.84;;;6.67;57.99
39405;BME280;25121;51.090;17.038;2023-02-22T21:10:46;100164.88;;;6.69;57.83
39405;BME280;25121;51.090;17.038;2023-02-22T21:12:12;100154.50;;;6.66;57.83
39405;BME280;25121;51.090;17.038;2023-02-22T21:13:35;100152.41;;;6.60;57.89
39405;BME280;25121;51.090;17.038;2023-02-22T21:14:56;100162.34;;;6.67;58.16
39405;BME280;25121;51.090;17.038;2023-02-22T21:16:41;100149.88;;;6.58;57.88
39405;BME280;25121;51.090;17.038;2023-02-22T21:18:09;100155.47;;;6.65;57.93
39405;BME280;25121;51.090;17.038;2023-02-22T21:19:32;100153.13;;;6.62;57.72
39405;BME280;25121;51.090;17.038;2023-02-22T21:21:05;100147.78;;;6.62;57.94
39405;BME280;25121;51.090;17.038;2023-02-22T21:22:30;100159.84;;;6.66;57.91
39405;BME280;25121;51.090;17.038;2023-02-22T21:24:09;100147.22;;;6.58;57.90
39405;BME280;25121;51.090;17.038;2023-02-22T21:25:37;100158.00;;;6.66;57.82
39405;BME280;25121;51.090;17.038;2023-02-22T21:27:24;100145.53;;;6.57;57.97
39405;BME280;25121;51.090;17.038;2023-02-22T21:29:03;100146.09;;;6.61;57.77
39405;BME280;25121;51.090;17.038;2023-02-22T21:31:45;100146.38;;;6.58;57.85
39405;BME280;25121;51.090;17.038;2023-02-22T21:33:13;100154.25;;;6.59;57.91
39405;BME280;25121;51.090;17.038;2023-02-22T21:34:39;100156.47;;;6.64;57.96
39405;BME280;25121;51.090;17.038;2023-02-22T21:36:05;100150.56;;;6.60;58.02
39405;BME280;25121;51.090;17.038;2023-02-22T21:37:34;100142.16;;;6.55;57.71
39405;BME280;25121;51.090;17.038;2023-02-22T21:39:00;100149.75;;;6.60;58.08
39405;BME280;25121;51.090;17.038;2023-02-22T21:40:40;100152.28;;;6.61;57.90
39405;BME280;25121;51.090;17.038;2023-02-22T21:42:04;100148.78;;;6.61;57.99
39405;BME280;25121;51.090;17.038;2023-02-22T21:43:27;100154.94;;;6.61;57.87
39405;BME280;25121;51.090;17.038;2023-02-22T21:44:51;100158.88;;;6.57;57.97
39405;BME280;25121;51.090;17.038;2023-02-22T21:46:18;100136.59;;;6.49;57.85
39405;BME280;25121;51.090;17.038;2023-02-22T21:47:41;100136.31;;;6.52;57.79
39405;BME280;25121;51.090;17.038;2023-02-22T21:49:05;100144.00;;;6.55;58.03
39405;BME280;25121;51.090;17.038;2023-02-22T21:50:28;100143.88;;;6.56;58.03
39405;BME280;25121;51.090;17.038;2023-02-22T21:51:51;100144.53;;;6.58;58.02
39405;BME280;25121;51.090;17.038;2023-02-22T21:53:16;100145.41;;;6.59;58.19
39405;BME280;25121;51.090;17.038;2023-02-22T21:54:49;100147.22;;;6.58;58.14
39405;BME280;25121;51.090;17.038;2023-02-22T21:56:34;100134.59;;;6.51;58.33
39405;BME280;25121;51.090;17.038;2023-02-22T21:58:18;100141.19;;;6.56;57.99
39405;BME280;25121;51.090;17.038;2023-02-22T21:59:45;100131.09;;;6.50;58.07
39405;BME280;25121;51.090;17.038;2023-02-22T22:01:10;100127.72;;;6.48;58.00
39405;BME280;25121;51.090;17.038;2023-02-22T22:02:38;100139.81;;;6.52;57.94
39405;BME280;25121;51.090;17.038;2023-02-22T22:04:06;100136.31;;;6.52;57.96
39405;BME280;25121;51.090;17.038;2023-02-22T22:05:29;100123.53;;;6.45;58.01
39405;BME280;25121;51.090;17.038;2023-02-22T22:06:55;100141.47;;;6.53;57.93
39405;BME280;25121;51.090;17.038;2023-02-22T22:08:18;100138.13;;;6.51;58.05
39405;BME280;25121;51.090;17.038;2023-02-22T22:09:42;100130.97;;;6.52;58.04
39405;BME280;25121;51.090;17.038;2023-02-22T22:11:08;100138.97;;;6.52;58.17
39405;BME280;25121;51.090;17.038;2023-02-22T22:12:32;100128.03;;;6.45;58.05
39405;BME280;25121;51.090;17.038;2023-02-22T22:13:59;100133.78;;;6.50;57.98
39405;BME280;25121;51.090;17.038;2023-02-22T22:15:29;100131.41;;;6.47;58.12
39405;BME280;25121;51.090;17.038;2023-02-22T22:16:57;100134.22;;;6.45;58.31
39405;BME280;25121;51.090;17.038;2023-02-22T22:18:20;100136.88;;;6.45;58.04
39405;BME280;25121;51.090;17.038;2023-02-22T22:19:42;100128.47;;;6.40;58.06
39405;BME280;25121;51.090;17.038;2023-02-22T22:21:07;100119.94;;;6.37;58.23
39405;BME280;25121;51.090;17.038;2023-02-22T22:22:42;100112.38;;;6.32;58.08
39405;BME280;25121;51.090;17.038;2023-02-22T22:24:21;100124.44;;;6.36;58.44
39405;BME280;25121;51.090;17.038;2023-02-22T22:25:48;100129.06;;;6.34;58.43
39405;BME280;25121;51.090;17.038;2023-02-22T22:27:12;100129.22;;;6.33;58.44
39405;BME280;25121;51.090;17.038;2023-02-22T22:28:40;100115.63;;;6.26;58.52